Time;durP1;ratioP1;P1;durP2;ratioP2;P2;SDS_P1;SDS_P2;PMS_P1;PMS_P2;Temp;Humidity;BMP_temperature;BMP_pressure;BME280_temperature;BME280_humidity;BME280_pressure;Samples;Min_cycle;Max_cycle;Signal;HPM_P1;HPM_P2
2021/08/07 00:00:13;;;;;;;2.17;1.33;;;;;;;16.83;73.07;98578.97;4995611;28;20042;-56
2021/08/07 00:02:38;;;;;;;2.22;1.50;;;;;;;16.88;72.87;98568.72;4995150;28;20077;-53
2021/08/07 00:05:04;;;;;;;3.53;1.90;;;;;;;16.82;72.89;98570.16;4995452;28;20042;-54
2021/08/07 00:07:30;;;;;;;3.65;1.65;;;;;;;16.71;73.56;98573.81;4994362;28;20038;-56
2021/08/07 00:09:55;;;;;;;3.53;2.15;;;;;;;16.70;73.83;98564.13;4995524;28;20088;-57
2021/08/07 00:12:21;;;;;;;2.22;1.60;;;;;;;16.76;73.50;98565.41;4993514;28;20030;-52
2021/08/07 00:14:46;;;;;;;3.53;1.30;;;;;;;16.87;73.59;98554.59;4995681;28;20037;-56
2021/08/07 00:17:11;;;;;;;2.47;1.50;;;;;;;17.24;71.99;98552.88;4994967;28;20057;-54
2021/08/07 00:19:37;;;;;;;3.42;2.17;;;;;;;17.33;71.33;98550.19;4995668;28;20042;-53
2021/08/07 00:22:04;;;;;;;2.03;1.65;;;;;;;17.28;71.85;98551.63;4995417;28;20508;-58
2021/08/07 00:24:29;;;;;;;3.15;1.50;;;;;;;17.32;71.51;98550.31;4995849;28;20045;-57
2021/08/07 00:26:55;;;;;;;3.78;1.85;;;;;;;17.17;71.63;98547.31;4995219;28;20266;-58
2021/08/07 00:29:21;;;;;;;1.85;1.30;;;;;;;17.02;73.17;98546.13;4995225;28;20700;-58
2021/08/07 00:31:46;;;;;;;3.83;1.70;;;;;;;17.09;72.48;98545.38;4995252;28;20050;-58
2021/08/07 00:34:12;;;;;;;5.18;1.88;;;;;;;17.23;72.10;98544.06;4998366;28;20112;-57
2021/08/07 00:36:37;;;;;;;2.60;1.52;;;;;;;17.45;70.49;98544.63;5002613;28;20564;-71
2021/08/07 00:39:03;;;;;;;1.65;1.17;;;;;;;17.37;70.72;98537.38;4988825;28;20092;-71
2021/08/07 00:41:28;;;;;;;3.60;1.73;;;;;;;17.27;71.25;98537.44;5003998;28;20031;-71
2021/08/07 00:43:54;;;;;;;2.50;1.42;;;;;;;17.10;72.03;98538.22;5006375;28;20641;-71
2021/08/07 00:46:19;;;;;;;2.63;1.60;;;;;;;16.91;72.69;98541.84;5012123;28;20120;-71
2021/08/07 00:48:44;;;;;;;5.20;1.70;;;;;;;16.71;73.45;98535.69;5016685;28;20038;-71
2021/08/07 00:51:10;;;;;;;2.35;1.92;;;;;;;16.55;74.18;98532.81;5008754;28;20410;-71
2021/08/07 00:53:36;;;;;;;3.20;1.83;;;;;;;16.47;74.58;98533.53;5008597;28;20104;-71
2021/08/07 00:56:01;;;;;;;3.08;1.75;;;;;;;16.43;74.60;98530.31;5008646;28;20034;-72
2021/08/07 00:58:26;;;;;;;3.33;1.70;;;;;;;16.44;74.08;98531.16;5007879;28;20076;-71
2021/08/07 01:00:52;;;;;;;1.88;1.50;;;;;;;16.43;74.55;98535.63;4984571;28;20076;-71
2021/08/07 01:03:32;;;;;;;5.78;1.88;;;;;;;16.38;74.88;98529.91;5013596;28;20419;-71
2021/08/07 01:06:28;;;;;;;4.50;3.45;;;;;;;16.37;75.04;98533.56;5013330;28;20042;-71
2021/08/07 01:09:24;;;;;;;4.97;1.90;;;;;;;16.34;76.16;98538.31;5014024;28;20121;-72
2021/08/07 01:11:55;;;;;;;4.20;1.98;;;;;;;16.36;75.71;98541.66;5011480;28;20034;-71
2021/08/07 01:14:25;;;;;;;3.88;1.60;;;;;;;16.36;75.74;98539.00;4995285;28;20092;-71
2021/08/07 01:16:53;;;;;;;3.88;2.40;;;;;;;16.34;75.62;98533.00;4972048;28;20093;-71
2021/08/07 01:19:19;;;;;;;4.50;1.60;;;;;;;16.29;75.43;98531.63;4992243;28;20490;-71
2021/08/07 01:21:56;;;;;;;3.35;2.00;;;;;;;16.34;75.03;98525.00;4991917;28;20109;-71
2021/08/07 01:24:35;;;;;;;6.53;2.30;;;;;;;16.28;75.03;98527.25;4992418;28;20042;-71
2021/08/07 01:27:21;;;;;;;4.00;1.95;;;;;;;16.26;74.96;98520.41;4991340;28;20403;-72
2021/08/07 01:29:48;;;;;;;4.32;2.58;;;;;;;16.18;75.40;98528.28;4991671;28;20034;-70
2021/08/07 01:32:14;;;;;;;4.65;2.50;;;;;;;16.12;75.91;98521.72;4991937;28;20085;-71
2021/08/07 01:34:40;;;;;;;5.22;1.77;;;;;;;16.03;76.13;98528.69;4992008;28;20042;-71
2021/08/07 01:37:06;;;;;;;2.30;1.70;;;;;;;15.98;76.75;98524.78;4989674;28;20676;-70
2021/08/07 01:39:32;;;;;;;4.85;2.00;;;;;;;15.93;76.57;98530.53;4992001;28;20030;-71
2021/08/07 01:41:57;;;;;;;2.47;1.77;;;;;;;15.86;76.97;98524.09;4991564;28;20138;-71
2021/08/07 01:44:22;;;;;;;6.32;1.75;;;;;;;15.78;77.00;98521.31;4991779;28;20401;-71
2021/08/07 01:46:56;;;;;;;4.22;1.90;;;;;;;15.72;77.43;98513.88;4989504;28;20173;-71
2021/08/07 01:49:39;;;;;;;6.30;2.40;;;;;;;15.63;77.85;98508.41;4992006;28;20046;-71
2021/08/07 01:52:12;;;;;;;2.80;1.60;;;;;;;15.55;77.64;98510.88;4991306;28;20045;-71
2021/08/07 01:54:44;;;;;;;2.92;1.75;;;;;;;15.52;77.56;98516.47;4991571;28;20049;-70
2021/08/07 01:57:16;;;;;;;5.50;2.38;;;;;;;15.48;77.71;98511.59;4990999;28;20108;-71
2021/08/07 01:59:45;;;;;;;4.60;2.72;;;;;;;15.46;77.71;98512.56;4991322;28;20610;-70
2021/08/07 02:02:12;;;;;;;3.63;1.70;;;;;;;15.44;77.90;98513.69;4989892;28;20046;-71
2021/08/07 02:04:39;;;;;;;4.53;2.08;;;;;;;15.41;78.04;98511.31;4991546;28;20045;-71
2021/08/07 02:07:04;;;;;;;3.15;2.15;;;;;;;15.38;77.78;98511.56;4990553;28;20045;-71
2021/08/07 02:09:30;;;;;;;4.00;2.13;;;;;;;15.37;77.90;98507.25;4991344;28;20034;-70
2021/08/07 02:11:56;;;;;;;3.35;2.03;;;;;;;15.35;77.46;98501.22;4991433;28;20081;-70
2021/08/07 02:14:25;;;;;;;7.80;2.65;;;;;;;15.34;77.94;98504.88;4991536;28;20062;-72
2021/08/07 02:16:52;;;;;;;5.40;2.10;;;;;;;15.30;77.92;98498.97;4990338;28;20100;-71
2021/08/07 02:19:18;;;;;;;2.35;1.88;;;;;;;15.28;78.34;98502.75;4991705;28;20058;-70
2021/08/07 02:21:44;;;;;;;2.65;2.03;;;;;;;15.23;78.56;98504.03;4991078;28;20042;-71
2021/08/07 02:24:09;;;;;;;5.13;2.40;;;;;;;15.17;78.86;98496.59;4990888;28;20038;-71
2021/08/07 02:26:36;;;;;;;4.85;2.40;;;;;;;15.08;78.71;98486.78;4990256;28;20410;-71
2021/08/07 02:29:03;;;;;;;5.72;2.30;;;;;;;15.06;78.99;98487.88;4991190;28;20037;-71
2021/08/07 02:31:30;;;;;;;7.93;2.17;;;;;;;15.07;78.63;98482.44;4990495;28;20030;-70
2021/08/07 02:33:56;;;;;;;6.25;2.30;;;;;;;15.00;78.93;98476.84;4990327;28;20030;-70
2021/08/07 02:36:22;;;;;;;7.80;2.75;;;;;;;15.02;78.88;98480.19;4990927;28;20041;-71
2021/08/07 02:38:48;;;;;;;3.45;1.80;;;;;;;15.03;78.37;98484.53;4990602;28;20161;-70
2021/08/07 02:41:14;;;;;;;4.68;2.17;;;;;;;15.05;78.14;98481.75;4991023;28;20093;-71
2021/08/07 02:43:40;;;;;;;3.63;2.25;;;;;;;15.00;78.15;98476.84;4990701;28;20037;-72
2021/08/07 02:46:06;;;;;;;3.45;1.90;;;;;;;14.97;78.21;98470.97;4990568;28;20050;-71
2021/08/07 02:48:31;;;;;;;3.17;2.42;;;;;;;14.97;77.79;98469.16;4989499;28;20040;-71
2021/08/07 02:50:57;;;;;;;3.40;2.08;;;;;;;15.00;78.02;98460.09;4990652;28;20038;-70
2021/08/07 02:53:24;;;;;;;2.55;1.80;;;;;;;14.98;78.37;98457.56;4990873;28;20038;-70
2021/08/07 02:55:49;;;;;;;3.13;2.17;;;;;;;15.01;78.00;98454.66;4990620;28;20446;-70
2021/08/07 02:58:15;;;;;;;3.80;2.15;;;;;;;15.07;77.81;98461.22;5017721;28;20029;-71
2021/08/07 03:00:40;;;;;;;6.28;2.00;;;;;;;15.08;77.80;98460.22;5029387;28;20064;-71
2021/08/07 03:03:06;;;;;;;4.53;2.22;;;;;;;15.12;77.29;98461.66;5029265;28;20445;-71
2021/08/07 03:05:32;;;;;;;6.10;2.50;;;;;;;15.18;77.14;98461.09;5029556;28;20057;-71
2021/08/07 03:07:57;;;;;;;3.47;1.80;;;;;;;15.17;77.36;98459.41;5028367;28;20049;-70
2021/08/07 03:10:23;;;;;;;4.60;2.22;;;;;;;15.21;77.37;98466.13;5019944;28;20030;-70
2021/08/07 03:12:52;;;;;;;8.10;2.90;;;;;;;15.25;77.06;98462.22;5009680;28;20042;-71
2021/08/07 03:15:20;;;;;;;5.57;2.22;;;;;;;15.29;76.91;98457.47;5008343;28;20033;-71
2021/08/07 03:17:45;;;;;;;2.42;1.90;;;;;;;15.34;76.83;98460.56;5008991;28;20029;-71
2021/08/07 03:20:11;;;;;;;3.13;1.95;;;;;;;15.33;76.97;98463.34;5009041;28;20040;-71
2021/08/07 03:22:36;;;;;;;6.15;2.30;;;;;;;15.36;77.12;98449.81;5009549;28;20127;-71
2021/08/07 03:25:02;;;;;;;5.57;2.10;;;;;;;15.36;77.03;98452.47;5009208;28;20497;-71
2021/08/07 03:27:28;;;;;;;8.70;2.92;;;;;;;15.40;76.79;98457.34;5008431;28;20049;-71
2021/08/07 03:29:53;;;;;;;6.80;2.38;;;;;;;15.45;76.52;98448.94;5009780;28;20469;-71
2021/08/07 03:32:18;;;;;;;3.38;2.33;;;;;;;15.50;76.91;98454.69;5009540;28;20041;-71
2021/08/07 03:34:44;;;;;;;3.13;1.70;;;;;;;15.52;76.44;98450.06;5009100;28;20117;-71
2021/08/07 03:37:09;;;;;;;6.03;2.05;;;;;;;15.55;76.45;98449.78;5008096;28;20573;-71
2021/08/07 03:39:35;;;;;;;4.47;2.00;;;;;;;15.58;76.18;98444.22;5008912;28;20034;-71
2021/08/07 03:42:00;;;;;;;3.38;1.90;;;;;;;15.59;76.03;98450.38;5009191;28;20402;-71
2021/08/07 03:44:25;;;;;;;7.25;2.55;;;;;;;15.63;76.13;98444.63;5008942;28;20034;-72
2021/08/07 03:46:51;;;;;;;5.03;2.10;;;;;;;15.65;75.71;98447.13;5008873;28;20456;-72
2021/08/07 03:49:16;;;;;;;6.80;2.40;;;;;;;15.68;76.23;98446.88;5007933;28;20053;-71
2021/08/07 03:51:42;;;;;;;5.50;2.20;;;;;;;15.69;75.73;98437.91;5008858;28;20029;-71
2021/08/07 03:54:07;;;;;;;4.75;2.40;;;;;;;15.70;75.58;98438.78;5009149;28;20070;-72
2021/08/07 03:56:32;;;;;;;3.85;1.95;;;;;;;15.68;75.93;98439.72;5008174;28;20030;-72
2021/08/07 03:58:58;;;;;;;7.43;2.90;;;;;;;15.67;76.08;98435.38;5009398;28;20057;-72
2021/08/07 04:01:23;;;;;;;6.40;2.40;;;;;;;15.66;75.90;98435.53;5009535;28;20040;-71
2021/08/07 04:03:48;;;;;;;3.30;2.10;;;;;;;15.62;76.15;98429.66;5007469;28;20033;-72
2021/08/07 04:06:14;;;;;;;5.90;2.58;;;;;;;15.61;76.14;98430.66;5008818;28;20046;-71
2021/08/07 04:08:39;;;;;;;6.72;2.42;;;;;;;15.63;76.06;98427.88;5008408;28;20037;-71
2021/08/07 04:11:04;;;;;;;6.72;2.47;;;;;;;15.62;75.91;98421.69;5008741;28;20131;-71
2021/08/07 04:13:30;;;;;;;5.03;3.38;;;;;;;15.62;76.08;98426.16;5008859;28;20030;-71
2021/08/07 04:15:55;;;;;;;4.85;2.42;;;;;;;15.65;75.92;98431.19;5009105;28;20121;-71
2021/08/07 04:18:20;;;;;;;5.25;2.00;;;;;;;15.65;75.91;98429.41;5008488;28;20030;-71
2021/08/07 04:20:46;;;;;;;5.28;2.10;;;;;;;15.68;75.88;98412.34;5008957;28;20050;-71
2021/08/07 04:23:11;;;;;;;7.53;2.13;;;;;;;15.71;75.53;98424.53;5008497;28;20069;-71
2021/08/07 04:25:37;;;;;;;3.17;1.92;;;;;;;15.76;75.60;98422.28;5009168;28;20030;-70
2021/08/07 04:28:03;;;;;;;4.03;2.30;;;;;;;15.76;75.67;98422.28;5008036;28;20033;-70
2021/08/07 04:30:28;;;;;;;4.47;2.00;;;;;;;15.78;75.30;98417.66;5009090;28;20409;-70
2021/08/07 04:32:53;;;;;;;6.30;2.50;;;;;;;15.79;75.37;98416.69;5009694;28;20052;-71
2021/08/07 04:35:19;;;;;;;5.80;2.00;;;;;;;15.84;75.25;98420.56;5009538;28;20034;-72
2021/08/07 04:37:48;;;;;;;6.10;2.40;;;;;;;15.89;75.22;98420.16;5009936;28;20038;-71
2021/08/07 04:40:14;;;;;;;7.05;2.40;;;;;;;15.89;75.38;98423.63;5012191;28;20045;-71
2021/08/07 04:42:40;;;;;;;7.43;3.55;;;;;;;15.95;74.81;98421.38;5009402;28;20041;-71
2021/08/07 04:45:06;;;;;;;6.07;2.55;;;;;;;15.99;75.48;98426.28;5012353;28;20401;-71
2021/08/07 04:47:31;;;;;;;6.22;2.85;;;;;;;16.05;75.36;98435.53;5011715;28;20046;-71
2021/08/07 04:49:56;;;;;;;5.40;2.35;;;;;;;16.08;74.25;98424.59;5012307;28;20132;-72
2021/08/07 04:52:22;;;;;;;4.07;2.22;;;;;;;16.14;74.39;98425.81;5012457;28;20420;-71
2021/08/07 04:54:47;;;;;;;5.70;2.22;;;;;;;16.17;74.03;98420.22;5011941;28;20061;-71
2021/08/07 04:57:12;;;;;;;3.55;2.58;;;;;;;16.17;73.46;98421.09;5001340;28;20388;-71
2021/08/07 04:59:38;;;;;;;3.83;2.35;;;;;;;16.18;73.79;98428.06;5028878;28;20132;-71
2021/08/07 05:02:03;;;;;;;4.25;2.38;;;;;;;16.22;73.73;98428.59;5030276;28;20055;-71
2021/08/07 05:04:28;;;;;;;6.85;2.97;;;;;;;16.21;74.12;98429.59;5031831;28;20034;-71
2021/08/07 05:06:53;;;;;;;9.27;2.55;;;;;;;16.24;73.81;98429.28;5021232;28;20037;-71
2021/08/07 05:09:19;;;;;;;7.72;2.88;;;;;;;16.27;73.55;98431.69;5011921;28;20493;-71
2021/08/07 05:11:44;;;;;;;3.67;2.25;;;;;;;16.29;73.33;98425.25;5011842;28;20046;-71
2021/08/07 05:14:10;;;;;;;10.10;2.50;;;;;;;16.27;72.92;98424.53;5011621;28;20494;-71
2021/08/07 05:16:35;;;;;;;4.95;2.80;;;;;;;16.29;73.03;98422.56;5011316;28;20598;-71
2021/08/07 05:19:00;;;;;;;5.75;2.35;;;;;;;16.32;72.99;98421.44;5011918;28;20574;-71
2021/08/07 05:21:26;;;;;;;7.43;4.00;;;;;;;16.37;73.05;98427.16;5010375;28;20541;-71
2021/08/07 05:23:51;;;;;;;6.97;2.28;;;;;;;16.40;72.81;98421.53;5012212;28;20038;-71
2021/08/07 05:26:16;;;;;;;4.22;2.40;;;;;;;16.43;72.43;98412.44;5011174;28;20026;-71
2021/08/07 05:28:42;;;;;;;6.18;2.30;;;;;;;16.48;72.57;98415.50;5010834;28;20088;-71
2021/08/07 05:31:07;;;;;;;4.97;2.47;;;;;;;16.53;72.60;98418.53;5002928;28;20046;-71
2021/08/07 05:33:33;;;;;;;8.55;2.95;;;;;;;16.53;72.38;98407.91;5005278;28;20038;-71
2021/08/07 05:35:58;;;;;;;5.07;2.17;;;;;;;16.57;72.22;98416.44;5003667;28;20517;-71
2021/08/07 05:38:23;;;;;;;6.13;2.78;;;;;;;16.61;71.61;98412.47;5009308;28;20032;-72
2021/08/07 05:40:49;;;;;;;5.55;2.22;;;;;;;16.65;71.61;98411.22;5011192;28;20045;-72
2021/08/07 05:43:14;;;;;;;3.50;1.73;;;;;;;16.68;71.62;98417.06;5011433;28;20038;-72
2021/08/07 05:45:39;;;;;;;4.90;2.35;;;;;;;16.71;71.74;98411.47;5011550;28;20096;-72
2021/08/07 05:48:05;;;;;;;5.68;2.80;;;;;;;16.72;71.02;98412.31;5010646;28;20046;-71
2021/08/07 05:50:30;;;;;;;5.93;2.33;;;;;;;16.75;71.00;98409.34;5010980;28;20030;-71
2021/08/07 05:52:55;;;;;;;3.90;2.10;;;;;;;16.73;71.05;98413.97;5011943;28;20486;-71
2021/08/07 05:55:21;;;;;;;6.72;2.47;;;;;;;16.76;71.26;98405.72;5011770;28;20084;-70
2021/08/07 05:57:46;;;;;;;4.57;2.33;;;;;;;16.78;70.95;98414.38;5008449;28;20098;-71
2021/08/07 06:00:12;;;;;;;4.03;2.55;;;;;;;16.79;71.05;98409.94;5010376;28;20061;-71
2021/08/07 06:02:37;;;;;;;4.53;2.33;;;;;;;16.82;71.18;98407.78;5008312;28;20109;-67
2021/08/07 06:05:04;;;;;;;3.97;2.50;;;;;;;16.84;70.98;98413.81;5008025;28;20124;-67
2021/08/07 06:07:29;;;;;;;10.82;4.05;;;;;;;16.88;70.96;98407.22;5007053;28;20117;-67
2021/08/07 06:09:54;;;;;;;5.32;2.42;;;;;;;16.90;71.00;98407.88;5010152;28;20105;-67
2021/08/07 06:12:20;;;;;;;5.30;2.55;;;;;;;16.92;70.91;98416.56;5011092;28;20044;-67
2021/08/07 06:14:45;;;;;;;10.43;2.85;;;;;;;16.97;70.84;98408.13;5010709;28;20490;-67
2021/08/07 06:17:11;;;;;;;4.47;2.28;;;;;;;17.00;70.13;98413.13;5010584;28;20780;-67
2021/08/07 06:19:37;;;;;;;6.10;2.45;;;;;;;17.01;70.52;98403.34;5012597;28;20040;-68
2021/08/07 06:22:03;;;;;;;7.45;2.63;;;;;;;17.07;70.66;98400.91;5011735;28;20034;-68
2021/08/07 06:24:29;;;;;;;7.18;2.45;;;;;;;17.12;70.21;98403.13;5011857;28;20026;-68
2021/08/07 06:26:54;;;;;;;5.72;2.65;;;;;;;17.23;69.94;98391.38;5010568;28;20056;-69
2021/08/07 06:29:19;;;;;;;10.93;2.97;;;;;;;17.23;69.44;98392.25;5012366;28;20030;-68
2021/08/07 06:31:44;;;;;;;10.43;2.30;;;;;;;17.27;69.68;98395.44;5011108;28;20076;-67
2021/08/07 06:34:10;;;;;;;6.53;3.22;;;;;;;17.32;69.29;98396.63;5013852;28;20050;-67
2021/08/07 06:36:35;;;;;;;9.23;2.67;;;;;;;17.37;69.07;98399.69;5027318;28;20064;-68
2021/08/07 06:39:01;;;;;;;8.98;3.25;;;;;;;17.37;69.06;98397.00;5019376;28;20044;-68
2021/08/07 06:41:26;;;;;;;9.93;3.30;;;;;;;17.53;71.34;98403.50;5003124;28;20034;-64
2021/08/07 06:43:51;;;;;;;6.57;2.65;;;;;;;17.77;68.31;98403.69;4987059;28;20122;-58
2021/08/07 06:46:17;;;;;;;5.63;2.63;;;;;;;17.87;68.35;98394.78;4994825;28;20497;-59
2021/08/07 06:48:42;;;;;;;4.45;1.85;;;;;;;17.98;67.30;98400.69;4996015;28;20048;-61
2021/08/07 06:51:08;;;;;;;8.90;3.20;;;;;;;17.99;66.70;98402.38;4996654;28;20041;-72
2021/08/07 06:53:33;;;;;;;3.95;1.70;;;;;;;17.91;67.28;98406.81;4990384;28;20569;-71
2021/08/07 06:55:59;;;;;;;8.02;2.63;;;;;;;17.83;67.10;98394.25;5014555;28;20049;-71
2021/08/07 06:58:24;;;;;;;4.38;2.20;;;;;;;17.79;67.34;98399.06;5013808;28;20041;-71
2021/08/07 07:00:49;;;;;;;5.75;2.28;;;;;;;17.79;67.45;98407.06;4984966;28;20358;-72
2021/08/07 07:03:15;;;;;;;4.95;1.98;;;;;;;17.76;67.09;98403.84;5002167;28;20038;-71
2021/08/07 07:05:40;;;;;;;6.53;2.17;;;;;;;17.71;66.34;98398.13;5004524;28;20038;-71
2021/08/07 07:08:06;;;;;;;5.28;2.15;;;;;;;17.70;67.16;98388.47;5001767;28;20108;-72
2021/08/07 07:10:31;;;;;;;6.78;2.35;;;;;;;17.74;66.75;98384.50;5004004;28;20034;-71
2021/08/07 07:12:57;;;;;;;5.97;1.92;;;;;;;17.80;67.11;98384.75;5004851;28;20052;-71
2021/08/07 07:15:24;;;;;;;5.60;2.10;;;;;;;17.90;66.38;98389.16;5002732;28;20030;-71
2021/08/07 07:17:49;;;;;;;7.30;2.20;;;;;;;17.98;66.73;98387.34;5003860;28;20400;-71
2021/08/07 07:20:15;;;;;;;9.18;2.25;;;;;;;18.00;65.04;98387.22;5004516;28;20611;-71
2021/08/07 07:22:41;;;;;;;4.60;2.17;;;;;;;18.06;65.41;98383.06;5003603;28;20042;-71
2021/08/07 07:25:10;;;;;;;3.70;1.83;;;;;;;18.08;65.74;98383.75;5003620;28;20034;-70
2021/08/07 07:27:35;;;;;;;5.30;2.50;;;;;;;18.12;64.60;98388.63;5003236;28;20108;-71
2021/08/07 07:30:01;;;;;;;5.97;2.45;;;;;;;18.17;64.78;98393.47;5003793;28;20604;-72
2021/08/07 07:32:27;;;;;;;6.40;1.80;;;;;;;18.23;65.01;98399.00;5005658;28;20038;-71
2021/08/07 07:34:52;;;;;;;7.25;2.47;;;;;;;18.32;64.63;98397.22;5007163;28;20045;-71
2021/08/07 07:37:17;;;;;;;7.40;2.70;;;;;;;18.38;64.39;98393.06;5006365;28;20038;-71
2021/08/07 07:39:43;;;;;;;8.13;2.35;;;;;;;18.40;63.77;98402.59;5003945;28;20127;-70
2021/08/07 07:42:08;;;;;;;3.90;2.00;;;;;;;18.44;64.13;98392.47;5003747;28;20571;-70
2021/08/07 07:44:34;;;;;;;10.13;2.55;;;;;;;18.50;64.11;98396.31;5003555;28;20493;-71
2021/08/07 07:46:59;;;;;;;4.95;2.15;;;;;;;18.58;63.73;98399.88;5003019;28;20080;-70
2021/08/07 07:49:25;;;;;;;5.70;2.17;;;;;;;18.64;62.97;98387.69;5003681;28;20528;-70
2021/08/07 07:51:50;;;;;;;10.65;2.50;;;;;;;18.68;63.05;98394.41;5002638;28;20038;-70
2021/08/07 07:54:15;;;;;;;5.30;2.40;;;;;;;18.69;62.91;98385.38;5003115;28;20561;-71
2021/08/07 07:56:41;;;;;;;11.00;2.92;;;;;;;18.79;62.90;98390.63;5002737;28;20126;-71
2021/08/07 07:59:06;;;;;;;6.97;2.22;;;;;;;18.85;61.84;98389.94;5002998;28;20042;-70
2021/08/07 08:01:32;;;;;;;4.32;2.40;;;;;;;18.83;61.81;98389.31;5002425;28;20117;-71
2021/08/07 08:03:57;;;;;;;6.75;2.20;;;;;;;18.91;61.56;98385.81;5003617;28;20034;-71
2021/08/07 08:06:22;;;;;;;7.70;2.10;;;;;;;18.97;61.44;98374.47;5001240;28;20033;-70
2021/08/07 08:08:48;;;;;;;3.92;2.03;;;;;;;19.08;60.82;98379.50;5001922;28;20049;-71
2021/08/07 08:11:13;;;;;;;7.80;2.20;;;;;;;19.19;60.60;98375.66;5004191;28;20037;-71
2021/08/07 08:13:40;;;;;;;5.20;2.28;;;;;;;19.28;60.05;98372.84;5005844;28;20701;-72
2021/08/07 08:16:07;;;;;;;7.55;2.72;;;;;;;19.45;59.91;98368.34;5007606;28;20038;-72
2021/08/07 08:18:33;;;;;;;7.05;2.33;;;;;;;19.62;59.47;98369.19;5006733;28;20107;-71
2021/08/07 08:20:58;;;;;;;6.72;2.00;;;;;;;19.72;58.43;98367.19;5007431;28;20034;-70
2021/08/07 08:23:23;;;;;;;4.85;2.00;;;;;;;19.85;58.41;98371.19;5007095;28;20494;-72
2021/08/07 08:25:49;;;;;;;7.15;2.10;;;;;;;20.08;58.36;98374.84;5007258;28;20045;-72
2021/08/07 08:28:15;;;;;;;6.53;2.30;;;;;;;20.22;56.90;98372.44;5006407;28;20033;-70
2021/08/07 08:30:40;;;;;;;5.70;2.70;;;;;;;20.14;57.95;98379.50;5007464;28;20045;-70
2021/08/07 08:33:05;;;;;;;9.38;2.95;;;;;;;20.15;57.97;98375.78;5007712;28;20458;-73
2021/08/07 08:35:31;;;;;;;4.22;2.45;;;;;;;20.09;57.99;98373.81;5005096;28;20067;-71
2021/08/07 08:37:56;;;;;;;6.63;2.22;;;;;;;20.00;58.17;98374.84;4992441;28;20506;-71
2021/08/07 08:40:23;;;;;;;4.80;2.20;;;;;;;19.98;58.44;98370.66;4997375;28;20044;-72
2021/08/07 08:42:51;;;;;;;5.95;2.30;;;;;;;19.93;58.01;98371.16;5007095;28;20572;-71
2021/08/07 08:45:16;;;;;;;7.43;2.90;;;;;;;19.93;58.50;98369.31;5006014;28;20037;-72
2021/08/07 08:47:42;;;;;;;6.28;2.53;;;;;;;19.89;57.57;98368.00;5005380;28;20674;-72
2021/08/07 08:50:09;;;;;;;4.35;2.03;;;;;;;19.91;57.33;98366.00;5006677;28;20125;-70
2021/08/07 08:52:37;;;;;;;4.93;2.33;;;;;;;19.95;57.53;98370.00;5006425;28;20038;-71
2021/08/07 08:55:04;;;;;;;6.50;1.95;;;;;;;20.02;57.48;98372.00;5005926;28;20045;-74
2021/08/07 08:57:29;;;;;;;4.35;2.20;;;;;;;20.11;56.90;98369.13;5006457;28;20039;-70
2021/08/07 08:59:55;;;;;;;4.13;1.80;;;;;;;20.14;56.96;98359.94;5007251;28;20034;-71
2021/08/07 09:02:21;;;;;;;5.03;2.30;;;;;;;20.19;56.48;98356.75;5004144;28;20124;-71
2021/08/07 09:04:47;;;;;;;17.30;3.35;;;;;;;20.23;56.58;98363.41;5004671;28;20387;-71
2021/08/07 09:07:14;;;;;;;6.88;2.22;;;;;;;20.15;56.28;98370.44;5003938;28;20100;-70
2021/08/07 09:09:45;;;;;;;8.48;2.83;;;;;;;20.01;56.63;98367.63;5005944;28;20064;-72
2021/08/07 09:12:11;;;;;;;10.60;2.53;;;;;;;19.86;57.33;98362.16;5005942;28;20038;-71
2021/08/07 09:14:39;;;;;;;10.35;3.75;;;;;;;19.86;57.02;98367.50;4993420;28;20038;-72
2021/08/07 09:17:08;;;;;;;4.13;2.20;;;;;;;19.76;56.97;98358.81;4984911;28;20035;-71
2021/08/07 09:19:39;;;;;;;6.10;2.45;;;;;;;19.73;57.14;98358.16;4982387;28;20109;-71
2021/08/07 09:22:05;;;;;;;7.15;2.70;;;;;;;19.75;57.10;98357.16;5003598;28;20418;-71
2021/08/07 09:24:30;;;;;;;4.50;1.85;;;;;;;19.76;57.29;98351.63;5004886;28;20038;-71
2021/08/07 09:27:04;;;;;;;5.60;2.50;;;;;;;19.83;57.08;98347.28;5003787;28;20125;-71
2021/08/07 09:29:40;;;;;;;7.35;2.33;;;;;;;20.06;56.75;98349.22;4981800;28;20030;-71
2021/08/07 09:32:06;;;;;;;3.97;1.98;;;;;;;20.11;56.46;98350.41;4985439;28;20068;-71
2021/08/07 09:34:32;;;;;;;7.40;2.47;;;;;;;20.25;55.46;98346.16;4999400;28;20037;-72
2021/08/07 09:36:57;;;;;;;8.27;2.10;;;;;;;20.26;55.54;98342.50;5004599;28;20046;-71
2021/08/07 09:39:46;;;;;;;3.97;1.73;;;;;;;20.19;55.42;98349.53;5003603;28;20046;-71
2021/08/07 09:42:12;;;;;;;4.85;2.33;;;;;;;20.10;56.37;98356.75;5007629;28;20116;-70
2021/08/07 09:44:38;;;;;;;4.72;1.83;;;;;;;20.03;56.56;98362.97;5005755;28;20042;-72
2021/08/07 09:47:03;;;;;;;5.95;2.38;;;;;;;20.01;56.27;98356.94;5005117;28;20044;-71
2021/08/07 09:49:42;;;;;;;4.63;3.08;;;;;;;19.99;56.48;98357.13;5009442;28;20095;-72
2021/08/07 09:52:09;;;;;;;4.07;1.80;;;;;;;19.99;56.15;98364.31;5006796;28;20042;-71
2021/08/07 09:54:36;;;;;;;9.40;2.83;;;;;;;20.02;56.25;98358.63;5005371;28;20022;-71
2021/08/07 09:57:02;;;;;;;5.82;2.47;;;;;;;20.09;56.07;98356.94;5005122;28;20033;-71
2021/08/07 09:59:33;;;;;;;5.25;2.05;;;;;;;20.19;54.83;98349.53;5004502;28;20060;-71
2021/08/07 10:01:59;;;;;;;3.78;1.92;;;;;;;20.25;54.96;98361.41;5009413;28;20042;-71
2021/08/07 10:04:25;;;;;;;3.08;1.77;;;;;;;20.32;53.94;98354.34;5004775;28;20037;-71
2021/08/07 10:07:07;;;;;;;6.78;1.80;;;;;;;20.48;53.01;98346.25;5000878;28;20037;-71
2021/08/07 10:09:33;;;;;;;4.15;1.88;;;;;;;20.50;53.25;98351.41;5023015;28;20040;-73
2021/08/07 10:12:17;;;;;;;7.07;2.05;;;;;;;21.42;51.28;98339.03;5009306;28;20034;-71
2021/08/07 10:14:44;;;;;;;5.97;1.80;;;;;;;22.43;48.72;98325.25;5005054;28;20056;-71
2021/08/07 10:17:15;;;;;;;7.57;2.60;;;;;;;23.02;46.88;98327.00;5003339;28;20038;-71
2021/08/07 10:19:41;;;;;;;6.60;2.60;;;;;;;23.95;44.73;98315.19;5004866;28;20022;-71
2021/08/07 10:22:10;;;;;;;5.70;2.42;;;;;;;24.15;43.91;98307.22;5007728;28;20687;-72
2021/08/07 10:24:37;;;;;;;5.63;2.28;;;;;;;24.62;43.50;98299.38;5002485;28;20087;-71
2021/08/07 10:27:04;;;;;;;4.13;2.72;;;;;;;25.55;40.81;98293.28;5001027;28;20030;-72
2021/08/07 10:29:43;;;;;;;4.05;1.77;;;;;;;25.98;39.27;98284.75;5004383;28;20037;-72
2021/08/07 10:32:11;;;;;;;6.50;2.25;;;;;;;26.69;37.81;98284.72;5010961;28;20034;-71
2021/08/07 10:34:38;;;;;;;4.13;1.80;;;;;;;27.17;36.58;98275.25;5010774;28;20069;-71
2021/08/07 10:37:04;;;;;;;3.83;1.77;;;;;;;27.00;35.80;98269.56;5009518;28;20062;-70
2021/08/07 10:39:31;;;;;;;3.55;1.80;;;;;;;27.19;35.99;98273.19;5010542;28;20493;-70
2021/08/07 10:41:59;;;;;;;4.72;2.28;;;;;;;27.41;35.19;98273.63;5010719;28;20045;-71
2021/08/07 10:44:26;;;;;;;4.90;1.73;;;;;;;27.69;34.82;98272.34;5008939;28;20049;-71
2021/08/07 10:46:55;;;;;;;2.58;1.88;;;;;;;27.77;34.04;98277.50;5009740;28;20037;-71
2021/08/07 10:49:42;;;;;;;5.13;2.70;;;;;;;27.24;34.98;98275.25;5010494;28;20033;-72
2021/08/07 10:52:30;;;;;;;4.72;1.83;;;;;;;27.41;35.20;98266.34;5007803;28;20045;-71
2021/08/07 10:54:55;;;;;;;6.63;2.13;;;;;;;27.38;35.78;98266.78;5004116;28;20041;-71
2021/08/07 10:57:39;;;;;;;7.55;2.13;;;;;;;27.46;35.53;98272.97;5028922;28;20409;-71
2021/08/07 11:00:16;;;;;;;3.90;1.90;;;;;;;26.88;36.56;98276.72;5029682;28;20079;-71
2021/08/07 11:02:43;;;;;;;3.97;1.85;;;;;;;26.25;37.83;98272.00;5009928;28;20038;-70
2021/08/07 11:05:09;;;;;;;3.28;1.88;;;;;;;25.95;37.53;98275.22;5005675;28;20436;-71
2021/08/07 11:07:35;;;;;;;3.83;1.88;;;;;;;25.39;38.54;98279.19;5009756;28;20556;-71
2021/08/07 11:10:15;;;;;;;2.85;1.60;;;;;;;25.01;39.30;98270.84;5009941;28;20034;-71
2021/08/07 11:12:42;;;;;;;3.03;1.85;;;;;;;24.71;38.95;98267.66;5012889;28;20026;-72
2021/08/07 11:15:31;;;;;;;4.35;1.92;;;;;;;24.44;39.98;98259.50;5009152;28;20414;-71
2021/08/07 11:17:57;;;;;;;4.90;1.52;;;;;;;24.20;40.47;98264.34;5008124;28;20097;-71
2021/08/07 11:20:42;;;;;;;3.88;1.77;;;;;;;24.05;41.18;98254.78;5009485;28;20065;-70
2021/08/07 11:23:09;;;;;;;4.32;1.40;;;;;;;23.81;42.08;98258.78;5012987;28;20037;-71
2021/08/07 11:25:56;;;;;;;5.72;1.95;;;;;;;23.51;41.99;98258.97;5010008;28;20421;-71
2021/08/07 11:28:22;;;;;;;4.45;1.50;;;;;;;23.53;41.88;98255.06;5010201;28;20498;-71
2021/08/07 11:30:47;;;;;;;2.55;1.48;;;;;;;23.60;42.34;98252.38;5009298;28;20430;-71
2021/08/07 11:33:13;;;;;;;2.75;1.70;;;;;;;23.60;41.62;98257.75;5009490;28;20034;-71